sensor_id;sensor_type;location;lat;lon;timestamp;temperature;humidity
35680;DHT22;21803;53.586;10.040;2022-12-29T00:01:30;18.70;47.80
35680;DHT22;21803;53.586;10.040;2022-12-29T00:03:56;18.70;47.80
35680;DHT22;21803;53.586;10.040;2022-12-29T00:06:22;18.70;47.90
35680;DHT22;21803;53.586;10.040;2022-12-29T00:08:47;18.70;48.10
35680;DHT22;21803;53.586;10.040;2022-12-29T00:11:22;18.70;47.80
35680;DHT22;21803;53.586;10.040;2022-12-29T00:13:49;18.70;47.90
35680;DHT22;21803;53.586;10.040;2022-12-29T00:16:34;18.70;47.80
35680;DHT22;21803;53.586;10.040;2022-12-29T00:19:00;18.70;48.40
35680;DHT22;21803;53.586;10.040;2022-12-29T00:21:27;18.70;47.80
35680;DHT22;21803;53.586;10.040;2022-12-29T00:24:19;18.70;47.80
35680;DHT22;21803;53.586;10.040;2022-12-29T00:29:48;18.70;47.70
35680;DHT22;21803;53.586;10.040;2022-12-29T00:32:32;18.70;47.70
35680;DHT22;21803;53.586;10.040;2022-12-29T00:35:33;18.70;47.70
35680;DHT22;21803;53.586;10.040;2022-12-29T00:38:02;18.70;47.70
35680;DHT22;21803;53.586;10.040;2022-12-29T00:40:47;18.70;47.80
35680;DHT22;21803;53.586;10.040;2022-12-29T00:43:31;18.70;47.70
35680;DHT22;21803;53.586;10.040;2022-12-29T00:46:15;18.70;47.80
35680;DHT22;21803;53.586;10.040;2022-12-29T00:48:40;18.70;47.80
35680;DHT22;21803;53.586;10.040;2022-12-29T00:51:24;18.70;47.80
35680;DHT22;21803;53.586;10.040;2022-12-29T00:53:50;18.70;47.80
35680;DHT22;21803;53.586;10.040;2022-12-29T00:56:15;18.70;47.80
35680;DHT22;21803;53.586;10.040;2022-12-29T00:58:41;18.70;47.80
35680;DHT22;21803;53.586;10.040;2022-12-29T01:01:08;18.70;47.80
35680;DHT22;21803;53.586;10.040;2022-12-29T01:03:35;18.70;47.90
35680;DHT22;21803;53.586;10.040;2022-12-29T01:06:02;18.70;47.80
35680;DHT22;21803;53.586;10.040;2022-12-29T01:08:29;18.70;47.90
35680;DHT22;21803;53.586;10.040;2022-12-29T01:13:31;18.70;47.90
35680;DHT22;21803;53.586;10.040;2022-12-29T01:15:57;18.70;47.90
35680;DHT22;21803;53.586;10.040;2022-12-29T01:18:24;18.70;47.90
35680;DHT22;21803;53.586;10.040;2022-12-29T01:20:49;18.70;47.90
35680;DHT22;21803;53.586;10.040;2022-12-29T01:23:15;18.70;47.90
35680;DHT22;21803;53.586;10.040;2022-12-29T01:25:41;18.70;47.90
35680;DHT22;21803;53.586;10.040;2022-12-29T01:28:07;18.70;47.90
35680;DHT22;21803;53.586;10.040;2022-12-29T01:30:35;18.70;47.90
35680;DHT22;21803;53.586;10.040;2022-12-29T01:33:01;18.70;47.80
35680;DHT22;21803;53.586;10.040;2022-12-29T01:35:27;18.70;47.90
35680;DHT22;21803;53.586;10.040;2022-12-29T01:37:52;18.70;47.80
35680;DHT22;21803;53.586;10.040;2022-12-29T01:40:18;18.70;47.90
35680;DHT22;21803;53.586;10.040;2022-12-29T01:42:43;18.70;47.80
35680;DHT22;21803;53.586;10.040;2022-12-29T01:47:43;18.70;47.90
35680;DHT22;21803;53.586;10.040;2022-12-29T01:50:12;18.80;47.90
35680;DHT22;21803;53.586;10.040;2022-12-29T01:52:47;18.70;47.80
35680;DHT22;21803;53.586;10.040;2022-12-29T01:55:15;18.70;47.80
35680;DHT22;21803;53.586;10.040;2022-12-29T01:57:44;18.70;47.80
35680;DHT22;21803;53.586;10.040;2022-12-29T02:00:13;18.70;47.80
35680;DHT22;21803;53.586;10.040;2022-12-29T02:02:40;18.70;47.90
35680;DHT22;21803;53.586;10.040;2022-12-29T02:05:11;18.70;47.80
35680;DHT22;21803;53.586;10.040;2022-12-29T02:07:39;18.70;47.90
35680;DHT22;21803;53.586;10.040;2022-12-29T02:10:06;18.70;48.00
35680;DHT22;21803;53.586;10.040;2022-12-29T02:12:32;18.70;47.90
35680;DHT22;21803;53.586;10.040;2022-12-29T02:14:59;18.70;48.00
35680;DHT22;21803;53.586;10.040;2022-12-29T02:17:41;18.70;48.00
35680;DHT22;21803;53.586;10.040;2022-12-29T02:45:10;18.70;47.90
35680;DHT22;21803;53.586;10.040;2022-12-29T02:47:57;18.70;47.90
35680;DHT22;21803;53.586;10.040;2022-12-29T02:53:18;18.70;47.90
35680;DHT22;21803;53.586;10.040;2022-12-29T02:56:05;18.70;47.90
35680;DHT22;21803;53.586;10.040;2022-12-29T02:58:30;18.70;47.90
35680;DHT22;21803;53.586;10.040;2022-12-29T03:11:33;18.70;48.00
35680;DHT22;21803;53.586;10.040;2022-12-29T03:14:33;18.70;48.00
35680;DHT22;21803;53.586;10.040;2022-12-29T03:17:33;18.70;48.00
35680;DHT22;21803;53.586;10.040;2022-12-29T03:20:06;18.70;48.00
35680;DHT22;21803;53.586;10.040;2022-12-29T03:22:35;18.70;48.00
35680;DHT22;21803;53.586;10.040;2022-12-29T03:25:15;18.70;48.00
35680;DHT22;21803;53.586;10.040;2022-12-29T03:28:17;18.70;48.00
35680;DHT22;21803;53.586;10.040;2022-12-29T03:30:45;18.70;48.00
35680;DHT22;21803;53.586;10.040;2022-12-29T03:33:14;18.70;48.00
35680;DHT22;21803;53.586;10.040;2022-12-29T03:35:44;18.70;48.00
35680;DHT22;21803;53.586;10.040;2022-12-29T03:38:33;18.70;48.00
35680;DHT22;21803;53.586;10.040;2022-12-29T03:41:03;18.70;48.00
35680;DHT22;21803;53.586;10.040;2022-12-29T03:43:29;18.70;48.60
35680;DHT22;21803;53.586;10.040;2022-12-29T03:45:56;18.70;48.00
35680;DHT22;21803;53.586;10.040;2022-12-29T03:48:21;18.70;48.00
35680;DHT22;21803;53.586;10.040;2022-12-29T03:50:47;18.70;48.00
35680;DHT22;21803;53.586;10.040;2022-12-29T03:53:12;18.70;48.00
35680;DHT22;21803;53.586;10.040;2022-12-29T03:55:38;18.70;48.00
35680;DHT22;21803;53.586;10.040;2022-12-29T03:58:04;18.70;48.00
35680;DHT22;21803;53.586;10.040;2022-12-29T04:00:29;18.70;48.00
35680;DHT22;21803;53.586;10.040;2022-12-29T04:02:55;18.70;48.00
35680;DHT22;21803;53.586;10.040;2022-12-29T04:05:21;18.70;48.00
35680;DHT22;21803;53.586;10.040;2022-12-29T04:07:47;18.70;48.00
35680;DHT22;21803;53.586;10.040;2022-12-29T04:10:12;18.70;48.00
35680;DHT22;21803;53.586;10.040;2022-12-29T04:12:38;18.70;48.00
35680;DHT22;21803;53.586;10.040;2022-12-29T04:15:04;18.70;48.00
35680;DHT22;21803;53.586;10.040;2022-12-29T04:20:04;18.70;48.10
35680;DHT22;21803;53.586;10.040;2022-12-29T04:22:48;18.70;48.10
35680;DHT22;21803;53.586;10.040;2022-12-29T04:25:13;18.70;48.10
35680;DHT22;21803;53.586;10.040;2022-12-29T04:27:39;18.70;48.10
35680;DHT22;21803;53.586;10.040;2022-12-29T04:30:05;18.70;48.00
35680;DHT22;21803;53.586;10.040;2022-12-29T04:32:31;18.70;48.10
35680;DHT22;21803;53.586;10.040;2022-12-29T04:34:56;18.70;48.10
35680;DHT22;21803;53.586;10.040;2022-12-29T04:37:22;18.70;48.10
35680;DHT22;21803;53.586;10.040;2022-12-29T04:39:48;18.70;48.00
35680;DHT22;21803;53.586;10.040;2022-12-29T04:42:13;18.70;48.40
35680;DHT22;21803;53.586;10.040;2022-12-29T04:44:39;18.70;48.00
35680;DHT22;21803;53.586;10.040;2022-12-29T04:47:04;18.70;48.00
35680;DHT22;21803;53.586;10.040;2022-12-29T04:49:30;18.70;48.00
35680;DHT22;21803;53.586;10.040;2022-12-29T04:51:55;18.70;48.00
35680;DHT22;21803;53.586;10.040;2022-12-29T04:54:21;18.70;48.00
35680;DHT22;21803;53.586;10.040;2022-12-29T04:56:46;18.70;48.00
35680;DHT22;21803;53.586;10.040;2022-12-29T04:59:12;18.70;48.00
35680;DHT22;21803;53.586;10.040;2022-12-29T05:01:37;18.70;48.00
35680;DHT22;21803;53.586;10.040;2022-12-29T05:04:03;18.70;48.00
35680;DHT22;21803;53.586;10.040;2022-12-29T05:06:29;18.70;48.00
35680;DHT22;21803;53.586;10.040;2022-12-29T05:08:54;18.70;48.00
35680;DHT22;21803;53.586;10.040;2022-12-29T05:11:20;18.70;48.00
35680;DHT22;21803;53.586;10.040;2022-12-29T05:13:46;18.70;48.00
35680;DHT22;21803;53.586;10.040;2022-12-29T05:16:12;18.70;48.00
35680;DHT22;21803;53.586;10.040;2022-12-29T05:18:37;18.70;48.10
35680;DHT22;21803;53.586;10.040;2022-12-29T05:21:03;18.70;48.10
35680;DHT22;21803;53.586;10.040;2022-12-29T05:23:29;18.70;48.10
35680;DHT22;21803;53.586;10.040;2022-12-29T05:25:54;18.70;48.10
35680;DHT22;21803;53.586;10.040;2022-12-29T05:28:20;18.70;48.10
35680;DHT22;21803;53.586;10.040;2022-12-29T05:30:49;18.80;48.20
35680;DHT22;21803;53.586;10.040;2022-12-29T05:33:15;18.70;48.10
35680;DHT22;21803;53.586;10.040;2022-12-29T05:35:40;18.70;48.10
35680;DHT22;21803;53.586;10.040;2022-12-29T05:38:06;18.70;48.10
35680;DHT22;21803;53.586;10.040;2022-12-29T05:40:31;18.70;48.10
35680;DHT22;21803;53.586;10.040;2022-12-29T05:42:57;18.70;48.20
35680;DHT22;21803;53.586;10.040;2022-12-29T05:45:22;18.70;48.10
35680;DHT22;21803;53.586;10.040;2022-12-29T05:47:48;18.70;48.10
35680;DHT22;21803;53.586;10.040;2022-12-29T05:50:13;17.80;47.70
35680;DHT22;21803;53.586;10.040;2022-12-29T05:52:39;18.70;48.10
35680;DHT22;21803;53.586;10.040;2022-12-29T05:55:05;18.70;48.10
35680;DHT22;21803;53.586;10.040;2022-12-29T05:57:31;18.70;48.10
35680;DHT22;21803;53.586;10.040;2022-12-29T05:59:56;18.70;48.10
35680;DHT22;21803;53.586;10.040;2022-12-29T06:02:22;18.80;48.20
35680;DHT22;21803;53.586;10.040;2022-12-29T06:04:47;18.70;48.10
35680;DHT22;21803;53.586;10.040;2022-12-29T06:07:13;18.70;48.10
35680;DHT22;21803;53.586;10.040;2022-12-29T06:09:38;18.70;48.10
35680;DHT22;21803;53.586;10.040;2022-12-29T06:12:04;18.70;48.10
35680;DHT22;21803;53.586;10.040;2022-12-29T06:14:30;18.70;48.70
35680;DHT22;21803;53.586;10.040;2022-12-29T06:16:55;18.60;48.10
35680;DHT22;21803;53.586;10.040;2022-12-29T06:19:21;18.70;48.10
35680;DHT22;21803;53.586;10.040;2022-12-29T06:21:47;18.70;48.10
35680;DHT22;21803;53.586;10.040;2022-12-29T06:24:12;18.70;48.20
35680;DHT22;21803;53.586;10.040;2022-12-29T06:26:38;18.70;48.20
35680;DHT22;21803;53.586;10.040;2022-12-29T06:29:04;18.80;48.30
35680;DHT22;21803;53.586;10.040;2022-12-29T06:31:30;18.70;48.20
35680;DHT22;21803;53.586;10.040;2022-12-29T06:33:55;18.70;48.20
35680;DHT22;21803;53.586;10.040;2022-12-29T06:36:21;18.70;48.20
35680;DHT22;21803;53.586;10.040;2022-12-29T06:38:46;18.70;48.20
35680;DHT22;21803;53.586;10.040;2022-12-29T06:41:12;18.70;48.20
35680;DHT22;21803;53.586;10.040;2022-12-29T06:43:37;18.70;48.30
35680;DHT22;21803;53.586;10.040;2022-12-29T06:46:04;18.70;48.20
35680;DHT22;21803;53.586;10.040;2022-12-29T06:48:30;18.70;48.80
35680;DHT22;21803;53.586;10.040;2022-12-29T06:50:55;18.70;48.20
35680;DHT22;21803;53.586;10.040;2022-12-29T06:53:21;18.70;48.20
35680;DHT22;21803;53.586;10.040;2022-12-29T06:55:46;18.70;48.20
35680;DHT22;21803;53.586;10.040;2022-12-29T06:58:12;18.70;48.20
35680;DHT22;21803;53.586;10.040;2022-12-29T07:00:38;18.70;48.20
35680;DHT22;21803;53.586;10.040;2022-12-29T07:03:03;18.70;48.20
35680;DHT22;21803;53.586;10.040;2022-12-29T07:05:29;18.70;48.20
35680;DHT22;21803;53.586;10.040;2022-12-29T07:07:57;18.70;48.20
35680;DHT22;21803;53.586;10.040;2022-12-29T07:10:22;18.70;48.20
35680;DHT22;21803;53.586;10.040;2022-12-29T07:12:48;18.70;48.20
35680;DHT22;21803;53.586;10.040;2022-12-29T07:15:14;18.70;48.20
35680;DHT22;21803;53.586;10.040;2022-12-29T07:17:39;18.70;48.80
35680;DHT22;21803;53.586;10.040;2022-12-29T07:20:05;18.70;48.20
35680;DHT22;21803;53.586;10.040;2022-12-29T07:22:31;18.70;48.20
35680;DHT22;21803;53.586;10.040;2022-12-29T07:24:57;18.70;48.20
35680;DHT22;21803;53.586;10.040;2022-12-29T07:27:22;18.80;48.30
35680;DHT22;21803;53.586;10.040;2022-12-29T07:29:48;18.70;48.30
35680;DHT22;21803;53.586;10.040;2022-12-29T07:32:14;18.70;48.30
35680;DHT22;21803;53.586;10.040;2022-12-29T07:34:39;18.70;48.40
35680;DHT22;21803;53.586;10.040;2022-12-29T07:37:05;18.80;48.40
35680;DHT22;21803;53.586;10.040;2022-12-29T07:39:31;18.70;48.30
35680;DHT22;21803;53.586;10.040;2022-12-29T07:41:56;18.80;48.40
35680;DHT22;21803;53.586;10.040;2022-12-29T07:44:22;18.70;48.30
35680;DHT22;21803;53.586;10.040;2022-12-29T07:46:47;18.80;48.40
35680;DHT22;21803;53.586;10.040;2022-12-29T07:49:13;18.80;48.30
35680;DHT22;21803;53.586;10.040;2022-12-29T07:51:38;18.70;48.30
35680;DHT22;21803;53.586;10.040;2022-12-29T07:54:04;18.70;48.30
35680;DHT22;21803;53.586;10.040;2022-12-29T07:56:30;18.70;48.30
35680;DHT22;21803;53.586;10.040;2022-12-29T07:58:55;18.70;48.30
35680;DHT22;21803;53.586;10.040;2022-12-29T08:01:21;18.70;48.30
35680;DHT22;21803;53.586;10.040;2022-12-29T08:03:48;18.80;48.30
35680;DHT22;21803;53.586;10.040;2022-12-29T08:06:14;18.70;48.30
35680;DHT22;21803;53.586;10.040;2022-12-29T08:08:39;18.70;48.30
35680;DHT22;21803;53.586;10.040;2022-12-29T08:11:05;18.70;48.30
35680;DHT22;21803;53.586;10.040;2022-12-29T08:13:31;18.70;48.30
35680;DHT22;21803;53.586;10.040;2022-12-29T08:15:57;18.70;48.30
35680;DHT22;21803;53.586;10.040;2022-12-29T08:18:23;18.80;48.30
35680;DHT22;21803;53.586;10.040;2022-12-29T08:20:49;18.80;48.40
35680;DHT22;21803;53.586;10.040;2022-12-29T08:23:15;18.80;48.30
35680;DHT22;21803;53.586;10.040;2022-12-29T08:25:40;18.70;48.30
35680;DHT22;21803;53.586;10.040;2022-12-29T08:28:06;18.70;48.30
35680;DHT22;21803;53.586;10.040;2022-12-29T08:30:32;18.80;48.40
35680;DHT22;21803;53.586;10.040;2022-12-29T08:32:57;18.60;48.30
35680;DHT22;21803;53.586;10.040;2022-12-29T08:35:23;18.80;48.50
35680;DHT22;21803;53.586;10.040;2022-12-29T08:37:48;18.70;48.40
35680;DHT22;21803;53.586;10.040;2022-12-29T08:40:14;18.80;48.50
35680;DHT22;21803;53.586;10.040;2022-12-29T08:42:40;18.70;48.40
35680;DHT22;21803;53.586;10.040;2022-12-29T08:45:06;18.70;48.40
35680;DHT22;21803;53.586;10.040;2022-12-29T08:47:32;18.80;48.50
35680;DHT22;21803;53.586;10.040;2022-12-29T08:49:57;18.70;48.40
35680;DHT22;21803;53.586;10.040;2022-12-29T08:52:23;18.60;48.30
35680;DHT22;21803;53.586;10.040;2022-12-29T08:54:48;18.70;48.40
35680;DHT22;21803;53.586;10.040;2022-12-29T08:57:14;18.70;48.40
35680;DHT22;21803;53.586;10.040;2022-12-29T08:59:39;18.70;48.40
35680;DHT22;21803;53.586;10.040;2022-12-29T09:02:05;18.70;48.40
35680;DHT22;21803;53.586;10.040;2022-12-29T09:04:31;18.70;48.30
35680;DHT22;21803;53.586;10.040;2022-12-29T09:06:56;18.80;48.40
35680;DHT22;21803;53.586;10.040;2022-12-29T09:09:22;18.70;48.30
35680;DHT22;21803;53.586;10.040;2022-12-29T09:11:47;18.80;48.40
35680;DHT22;21803;53.586;10.040;2022-12-29T09:14:13;18.70;48.30
35680;DHT22;21803;53.586;10.040;2022-12-29T09:16:39;18.80;48.40
35680;DHT22;21803;53.586;10.040;2022-12-29T09:19:25;18.80;48.40
35680;DHT22;21803;53.586;10.040;2022-12-29T09:21:50;18.80;48.40
35680;DHT22;21803;53.586;10.040;2022-12-29T09:24:16;18.70;48.30
35680;DHT22;21803;53.586;10.040;2022-12-29T09:26:42;18.80;48.40
35680;DHT22;21803;53.586;10.040;2022-12-29T09:29:07;18.80;48.40
35680;DHT22;21803;53.586;10.040;2022-12-29T09:31:33;18.80;48.40
35680;DHT22;21803;53.586;10.040;2022-12-29T09:33:58;18.80;48.40
35680;DHT22;21803;53.586;10.040;2022-12-29T09:36:24;18.80;48.40
35680;DHT22;21803;53.586;10.040;2022-12-29T09:38:49;18.80;48.50
35680;DHT22;21803;53.586;10.040;2022-12-29T09:41:24;18.80;48.50
35680;DHT22;21803;53.586;10.040;2022-12-29T09:46:34;18.80;48.50
35680;DHT22;21803;53.586;10.040;2022-12-29T09:51:54;18.80;48.50
35680;DHT22;21803;53.586;10.040;2022-12-29T09:56:56;18.80;48.50
35680;DHT22;21803;53.586;10.040;2022-12-29T09:59:26;18.80;48.50
35680;DHT22;21803;53.586;10.040;2022-12-29T10:04:44;18.80;48.50
35680;DHT22;21803;53.586;10.040;2022-12-29T10:10:40;18.80;48.40
35680;DHT22;21803;53.586;10.040;2022-12-29T10:13:29;18.80;48.40
35680;DHT22;21803;53.586;10.040;2022-12-29T10:16:20;18.80;48.40
35680;DHT22;21803;53.586;10.040;2022-12-29T10:23:59;18.80;48.40
35680;DHT22;21803;53.586;10.040;2022-12-29T10:26:31;18.80;48.40
35680;DHT22;21803;53.586;10.040;2022-12-29T10:29:13;18.80;48.40
35680;DHT22;21803;53.586;10.040;2022-12-29T10:31:44;18.80;48.40
35680;DHT22;21803;53.586;10.040;2022-12-29T10:34:36;18.80;48.40
35680;DHT22;21803;53.586;10.040;2022-12-29T10:39:53;18.70;48.40
35680;DHT22;21803;53.586;10.040;2022-12-29T10:44:59;18.80;48.50
35680;DHT22;21803;53.586;10.040;2022-12-29T10:47:32;18.80;48.50
35680;DHT22;21803;53.586;10.040;2022-12-29T10:50:00;18.80;48.50
35680;DHT22;21803;53.586;10.040;2022-12-29T10:52:26;18.80;48.50
35680;DHT22;21803;53.586;10.040;2022-12-29T10:55:00;18.80;48.50
35680;DHT22;21803;53.586;10.040;2022-12-29T10:57:27;18.80;48.50
35680;DHT22;21803;53.586;10.040;2022-12-29T10:59:56;18.80;48.50
35680;DHT22;21803;53.586;10.040;2022-12-29T11:05:19;18.80;48.50
35680;DHT22;21803;53.586;10.040;2022-12-29T11:07:50;18.80;48.50
35680;DHT22;21803;53.586;10.040;2022-12-29T11:13:10;18.80;48.40
35680;DHT22;21803;53.586;10.040;2022-12-29T11:15:44;18.80;48.40
35680;DHT22;21803;53.586;10.040;2022-12-29T11:18:33;18.80;48.40
35680;DHT22;21803;53.586;10.040;2022-12-29T11:21:04;18.80;48.40
35680;DHT22;21803;53.586;10.040;2022-12-29T11:23:33;18.80;48.40
35680;DHT22;21803;53.586;10.040;2022-12-29T11:26:15;18.80;48.40
35680;DHT22;21803;53.586;10.040;2022-12-29T11:28:47;18.80;48.40
35680;DHT22;21803;53.586;10.040;2022-12-29T11:31:17;18.80;48.40
35680;DHT22;21803;53.586;10.040;2022-12-29T11:33:43;18.80;48.40
35680;DHT22;21803;53.586;10.040;2022-12-29T11:36:20;18.80;48.40
35680;DHT22;21803;53.586;10.040;2022-12-29T11:38:49;18.80;48.40
35680;DHT22;21803;53.586;10.040;2022-12-29T11:41:21;18.80;48.40
35680;DHT22;21803;53.586;10.040;2022-12-29T11:43:47;18.80;48.40
35680;DHT22;21803;53.586;10.040;2022-12-29T11:46:20;18.80;48.40
35680;DHT22;21803;53.586;10.040;2022-12-29T11:48:47;18.80;48.40
35680;DHT22;21803;53.586;10.040;2022-12-29T11:51:22;18.80;48.50
35680;DHT22;21803;53.586;10.040;2022-12-29T11:53:52;18.80;48.50
35680;DHT22;21803;53.586;10.040;2022-12-29T11:56:34;18.80;48.50
35680;DHT22;21803;53.586;10.040;2022-12-29T12:01:52;18.80;48.50
35680;DHT22;21803;53.586;10.040;2022-12-29T12:04:23;18.80;48.40
35680;DHT22;21803;53.586;10.040;2022-12-29T12:07:12;18.80;48.50
35680;DHT22;21803;53.586;10.040;2022-12-29T12:09:57;18.80;48.40
35680;DHT22;21803;53.586;10.040;2022-12-29T12:12:48;18.80;48.40
35680;DHT22;21803;53.586;10.040;2022-12-29T12:15:24;18.80;48.40
35680;DHT22;21803;53.586;10.040;2022-12-29T12:18:16;18.80;48.30
35680;DHT22;21803;53.586;10.040;2022-12-29T12:21:26;18.80;48.30
35680;DHT22;21803;53.586;10.040;2022-12-29T12:26:34;18.80;48.30
35680;DHT22;21803;53.586;10.040;2022-12-29T12:32:02;18.80;48.30
35680;DHT22;21803;53.586;10.040;2022-12-29T12:34:37;18.80;48.30
35680;DHT22;21803;53.586;10.040;2022-12-29T12:45:33;18.80;48.40
35680;DHT22;21803;53.586;10.040;2022-12-29T13:00:11;18.80;48.50
35680;DHT22;21803;53.586;10.040;2022-12-29T13:05:38;18.80;48.50
35680;DHT22;21803;53.586;10.040;2022-12-29T13:11:26;18.80;48.50
35680;DHT22;21803;53.586;10.040;2022-12-29T13:14:03;18.80;48.50
35680;DHT22;21803;53.586;10.040;2022-12-29T13:16:47;18.80;48.50
35680;DHT22;21803;53.586;10.040;2022-12-29T13:25:20;18.80;48.30
35680;DHT22;21803;53.586;10.040;2022-12-29T13:30:22;18.80;48.40
35680;DHT22;21803;53.586;10.040;2022-12-29T13:38:33;18.80;48.40
35680;DHT22;21803;53.586;10.040;2022-12-29T13:41:06;18.80;48.40
35680;DHT22;21803;53.586;10.040;2022-12-29T13:43:36;18.80;48.40
35680;DHT22;21803;53.586;10.040;2022-12-29T13:46:13;18.80;48.40
35680;DHT22;21803;53.586;10.040;2022-12-29T13:48:48;18.80;48.40
35680;DHT22;21803;53.586;10.040;2022-12-29T13:51:16;18.80;48.40
35680;DHT22;21803;53.586;10.040;2022-12-29T13:54:06;18.80;48.40
35680;DHT22;21803;53.586;10.040;2022-12-29T13:56:48;18.80;48.50
35680;DHT22;21803;53.586;10.040;2022-12-29T14:04:34;18.80;48.50
35680;DHT22;21803;53.586;10.040;2022-12-29T14:07:01;18.80;48.50
35680;DHT22;21803;53.586;10.040;2022-12-29T14:17:35;18.80;48.50
35680;DHT22;21803;53.586;10.040;2022-12-29T14:20:01;18.80;48.40
35680;DHT22;21803;53.586;10.040;2022-12-29T14:22:28;18.80;48.40
35680;DHT22;21803;53.586;10.040;2022-12-29T14:24:54;18.80;48.40
35680;DHT22;21803;53.586;10.040;2022-12-29T14:29:47;18.80;48.40
35680;DHT22;21803;53.586;10.040;2022-12-29T14:37:33;18.70;48.30
35680;DHT22;21803;53.586;10.040;2022-12-29T14:40:16;18.80;48.30
35680;DHT22;21803;53.586;10.040;2022-12-29T14:42:43;18.80;48.30
35680;DHT22;21803;53.586;10.040;2022-12-29T14:47:44;18.40;48.10
35680;DHT22;21803;53.586;10.040;2022-12-29T14:50:25;18.80;48.30
35680;DHT22;21803;53.586;10.040;2022-12-29T14:53:01;18.80;48.30
35680;DHT22;21803;53.586;10.040;2022-12-29T14:58:01;18.80;48.50
35680;DHT22;21803;53.586;10.040;2022-12-29T15:00:31;18.80;48.50
35680;DHT22;21803;53.586;10.040;2022-12-29T15:05:55;18.80;48.70
35680;DHT22;21803;53.586;10.040;2022-12-29T15:08:29;18.80;49.30
35680;DHT22;21803;53.586;10.040;2022-12-29T15:11:14;18.80;48.80
35680;DHT22;21803;53.586;10.040;2022-12-29T15:13:42;18.80;48.90
35680;DHT22;21803;53.586;10.040;2022-12-29T15:16:31;18.80;48.90
35680;DHT22;21803;53.586;10.040;2022-12-29T15:18:58;18.80;48.90
35680;DHT22;21803;53.586;10.040;2022-12-29T15:21:42;18.80;48.90
35680;DHT22;21803;53.586;10.040;2022-12-29T15:24:10;18.80;48.90
35680;DHT22;21803;53.586;10.040;2022-12-29T15:26:38;18.80;49.00
35680;DHT22;21803;53.586;10.040;2022-12-29T15:29:04;18.80;48.90
35680;DHT22;21803;53.586;10.040;2022-12-29T15:31:29;18.80;48.90
35680;DHT22;21803;53.586;10.040;2022-12-29T15:34:07;18.80;49.00
35680;DHT22;21803;53.586;10.040;2022-12-29T15:36:39;18.80;49.00
35680;DHT22;21803;53.586;10.040;2022-12-29T15:39:28;18.80;49.00
35680;DHT22;21803;53.586;10.040;2022-12-29T15:42:00;18.80;49.00
35680;DHT22;21803;53.586;10.040;2022-12-29T15:44:34;18.80;49.10
35680;DHT22;21803;53.586;10.040;2022-12-29T15:47:04;18.80;49.00
35680;DHT22;21803;53.586;10.040;2022-12-29T15:49:31;18.80;49.10
35680;DHT22;21803;53.586;10.040;2022-12-29T15:51:57;18.80;49.10
35680;DHT22;21803;53.586;10.040;2022-12-29T15:54:23;18.80;49.20
35680;DHT22;21803;53.586;10.040;2022-12-29T15:56:49;18.80;49.20
35680;DHT22;21803;53.586;10.040;2022-12-29T15:59:31;18.80;49.20
35680;DHT22;21803;53.586;10.040;2022-12-29T16:01:58;18.80;49.00
35680;DHT22;21803;53.586;10.040;2022-12-29T16:04:28;18.80;48.90
35680;DHT22;21803;53.586;10.040;2022-12-29T16:07:03;18.80;49.00
35680;DHT22;21803;53.586;10.040;2022-12-29T16:09:43;18.80;48.90
35680;DHT22;21803;53.586;10.040;2022-12-29T16:12:19;18.80;49.10
35680;DHT22;21803;53.586;10.040;2022-12-29T16:14:57;18.80;49.00
35680;DHT22;21803;53.586;10.040;2022-12-29T16:17:27;18.80;49.00
35680;DHT22;21803;53.586;10.040;2022-12-29T16:24:58;18.80;49.10
35680;DHT22;21803;53.586;10.040;2022-12-29T16:27:40;18.80;49.10
35680;DHT22;21803;53.586;10.040;2022-12-29T16:30:18;18.80;49.10
35680;DHT22;21803;53.586;10.040;2022-12-29T16:32:53;18.80;49.20
35680;DHT22;21803;53.586;10.040;2022-12-29T16:35:20;18.80;49.30
35680;DHT22;21803;53.586;10.040;2022-12-29T16:37:47;18.80;49.20
35680;DHT22;21803;53.586;10.040;2022-12-29T16:40:33;18.80;49.10
35680;DHT22;21803;53.586;10.040;2022-12-29T16:43:02;18.80;49.30
35680;DHT22;21803;53.586;10.040;2022-12-29T16:48:52;18.80;49.40
35680;DHT22;21803;53.586;10.040;2022-12-29T16:51:30;18.80;49.50
35680;DHT22;21803;53.586;10.040;2022-12-29T16:53:57;18.80;49.40
35680;DHT22;21803;53.586;10.040;2022-12-29T16:56:35;18.80;49.40
35680;DHT22;21803;53.586;10.040;2022-12-29T16:59:04;18.80;49.30
35680;DHT22;21803;53.586;10.040;2022-12-29T17:01:31;18.80;49.30
35680;DHT22;21803;53.586;10.040;2022-12-29T17:04:00;18.80;49.40
35680;DHT22;21803;53.586;10.040;2022-12-29T17:06:30;18.80;49.30
35680;DHT22;21803;53.586;10.040;2022-12-29T17:08:55;18.80;49.30
35680;DHT22;21803;53.586;10.040;2022-12-29T17:11:28;18.80;49.20
35680;DHT22;21803;53.586;10.040;2022-12-29T17:17:05;18.80;49.30
35680;DHT22;21803;53.586;10.040;2022-12-29T17:19:33;18.80;49.50
35680;DHT22;21803;53.586;10.040;2022-12-29T17:21:59;18.80;49.50
35680;DHT22;21803;53.586;10.040;2022-12-29T17:24:25;18.80;49.30
35680;DHT22;21803;53.586;10.040;2022-12-29T17:26:56;18.80;49.30
35680;DHT22;21803;53.586;10.040;2022-12-29T17:29:38;18.80;49.30
35680;DHT22;21803;53.586;10.040;2022-12-29T17:32:06;18.80;49.30
35680;DHT22;21803;53.586;10.040;2022-12-29T17:34:34;17.70;48.90
35680;DHT22;21803;53.586;10.040;2022-12-29T17:37:00;18.80;49.40
35680;DHT22;21803;53.586;10.040;2022-12-29T17:39:25;18.80;49.30
35680;DHT22;21803;53.586;10.040;2022-12-29T17:41:51;18.80;49.40
35680;DHT22;21803;53.586;10.040;2022-12-29T17:44:18;18.80;49.40
35680;DHT22;21803;53.586;10.040;2022-12-29T17:46:45;18.80;49.40
35680;DHT22;21803;53.586;10.040;2022-12-29T17:49:15;18.80;49.50
35680;DHT22;21803;53.586;10.040;2022-12-29T17:51:42;18.80;49.40
35680;DHT22;21803;53.586;10.040;2022-12-29T17:54:22;18.80;49.50
35680;DHT22;21803;53.586;10.040;2022-12-29T17:56:48;18.80;49.40
35680;DHT22;21803;53.586;10.040;2022-12-29T17:59:15;18.80;49.30
35680;DHT22;21803;53.586;10.040;2022-12-29T18:01:45;18.80;49.50
35680;DHT22;21803;53.586;10.040;2022-12-29T18:04:13;18.80;49.40
35680;DHT22;21803;53.586;10.040;2022-12-29T18:06:40;18.80;49.30
35680;DHT22;21803;53.586;10.040;2022-12-29T18:09:06;18.80;49.60
35680;DHT22;21803;53.586;10.040;2022-12-29T18:11:34;18.80;49.40
35680;DHT22;21803;53.586;10.040;2022-12-29T18:14:00;18.80;49.40
35680;DHT22;21803;53.586;10.040;2022-12-29T18:16:26;18.80;49.40
35680;DHT22;21803;53.586;10.040;2022-12-29T18:18:51;18.80;49.40
35680;DHT22;21803;53.586;10.040;2022-12-29T18:21:19;18.80;49.40